createdAt,value
2018-09-09T00:00:26.871Z,940.40
2018-09-09T00:01:26.860Z,940.36
2018-09-09T00:02:26.849Z,940.35
2018-09-09T00:03:26.842Z,940.35
2018-09-09T00:04:26.827Z,940.35
2018-09-09T00:05:26.868Z,940.37
2018-09-09T00:06:26.805Z,940.38
2018-09-09T00:07:26.794Z,940.31
2018-09-09T00:08:26.784Z,940.36
2018-09-09T00:09:26.773Z,940.32
2018-09-09T00:10:26.849Z,940.35
2018-09-09T00:11:26.750Z,940.34
2018-09-09T00:12:26.739Z,940.36
2018-09-09T00:13:26.727Z,940.34
2018-09-09T00:14:26.767Z,940.37
2018-09-09T00:15:26.725Z,940.35
2018-09-09T00:16:26.721Z,940.37
2018-09-09T00:17:26.731Z,940.37
2018-09-09T00:18:26.689Z,940.36
2018-09-09T00:19:26.666Z,940.38
2018-09-09T00:20:26.675Z,940.39
2018-09-09T00:21:26.657Z,940.38
2018-09-09T00:22:26.659Z,940.39
2018-09-09T00:23:26.616Z,940.39
2018-09-09T00:24:26.616Z,940.38
2018-09-09T00:25:26.616Z,940.33
2018-09-09T00:26:26.593Z,940.35
2018-09-09T00:27:26.573Z,940.33
2018-09-09T00:28:26.575Z,940.31
2018-09-09T00:29:26.552Z,940.34
2018-09-09T00:30:26.575Z,940.31
2018-09-09T00:31:26.529Z,940.33
2018-09-09T00:32:26.528Z,940.32
2018-09-09T00:33:26.510Z,940.35
2018-09-09T00:34:26.500Z,940.33
2018-09-09T00:35:26.502Z,940.34
2018-09-09T00:36:26.490Z,940.35
2018-09-09T00:37:26.467Z,940.33
2018-09-09T00:38:26.477Z,940.36
2018-09-09T00:39:26.441Z,940.35
2018-09-09T00:40:26.455Z,940.34
2018-09-09T00:41:26.417Z,940.33
2018-09-09T00:42:26.427Z,940.36
2018-09-09T00:43:26.398Z,940.34
2018-09-09T00:44:26.448Z,940.35
2018-09-09T00:45:26.390Z,940.36
2018-09-09T00:46:26.369Z,940.38
2018-09-09T00:47:26.352Z,940.38
2018-09-09T00:48:26.361Z,940.41
2018-09-09T00:49:26.342Z,940.40
2018-09-09T00:50:26.400Z,940.35
2018-09-09T00:51:26.310Z,940.36
2018-09-09T00:52:26.307Z,940.38
2018-09-09T00:53:26.286Z,940.36
2018-09-09T00:54:26.283Z,940.41
2018-09-09T00:55:26.270Z,940.37
2018-09-09T00:56:26.308Z,940.37
2018-09-09T00:57:26.244Z,940.41
2018-09-09T00:58:26.274Z,940.39
2018-09-09T00:59:26.222Z,940.37
2018-09-09T01:00:26.275Z,940.35
2018-09-09T01:01:26.221Z,940.38
2018-09-09T01:02:26.219Z,940.38
2018-09-09T01:03:26.175Z,940.37
2018-09-09T01:04:26.194Z,940.35
2018-09-09T01:05:26.164Z,940.36
2018-09-09T01:06:26.205Z,940.36
2018-09-09T01:07:26.129Z,940.38
2018-09-09T01:08:26.173Z,940.42
2018-09-09T01:09:26.109Z,940.39
2018-09-09T01:10:26.133Z,940.38
2018-09-09T01:11:26.105Z,940.44
2018-09-09T01:12:26.111Z,940.40
2018-09-09T01:13:26.063Z,940.39
2018-09-09T01:14:26.100Z,940.44
2018-09-09T01:15:26.041Z,940.45
2018-09-09T01:16:26.073Z,940.41
2018-09-09T01:17:26.020Z,940.44
2018-09-09T01:18:26.041Z,940.45
2018-09-09T01:19:25.998Z,940.42
2018-09-09T01:20:26.008Z,940.43
2018-09-09T01:21:25.990Z,940.39
2018-09-09T01:22:26.019Z,940.45
2018-09-09T01:23:25.953Z,940.38
2018-09-09T01:24:25.973Z,940.37
2018-09-09T01:25:25.931Z,940.37
2018-09-09T01:26:25.975Z,940.33
2018-09-09T01:27:25.908Z,940.36
2018-09-09T01:28:25.920Z,940.38
2018-09-09T01:29:25.887Z,940.32
2018-09-09T01:30:25.899Z,940.33
2018-09-09T01:31:25.907Z,940.31
2018-09-09T01:32:25.871Z,940.31
2018-09-09T01:33:25.847Z,940.35
2018-09-09T01:34:25.848Z,940.33
2018-09-09T01:35:25.822Z,940.32
2018-09-09T01:36:25.873Z,940.34
2018-09-09T01:37:25.802Z,940.30
2018-09-09T01:38:25.800Z,940.31
2018-09-09T01:39:25.799Z,940.28
2018-09-09T01:40:25.788Z,940.26
2018-09-09T01:41:25.755Z,940.26
2018-09-09T01:42:25.777Z,940.28
2018-09-09T01:43:25.729Z,940.27
2018-09-09T01:44:25.725Z,940.29
2018-09-09T01:45:25.707Z,940.32
2018-09-09T01:46:25.699Z,940.31
2018-09-09T01:47:25.707Z,940.29
2018-09-09T01:48:25.700Z,940.33
2018-09-09T01:49:25.670Z,940.31
2018-09-09T01:50:25.663Z,940.32
2018-09-09T01:51:25.646Z,940.29
2018-09-09T01:52:25.654Z,940.31
2018-09-09T01:53:25.619Z,940.30
2018-09-09T01:54:25.627Z,940.33
2018-09-09T01:55:25.603Z,940.32
2018-09-09T01:56:25.589Z,940.36
2018-09-09T01:57:25.594Z,940.37
2018-09-09T01:58:25.574Z,940.43
2018-09-09T01:59:25.554Z,940.48
2018-09-09T02:00:25.547Z,940.48
2018-09-09T02:01:25.538Z,940.47
2018-09-09T02:02:25.546Z,940.51
2018-09-09T02:03:25.511Z,940.45
2018-09-09T02:04:25.501Z,940.50
2018-09-09T02:05:25.487Z,940.52
2018-09-09T02:06:25.481Z,940.53
2018-09-09T02:07:25.490Z,940.52
2018-09-09T02:08:25.459Z,940.51
2018-09-09T02:09:25.467Z,940.51
2018-09-09T02:10:25.449Z,940.53
2018-09-09T02:11:25.424Z,940.51
2018-09-09T02:12:25.430Z,940.50
2018-09-09T02:13:25.401Z,940.53
2018-09-09T02:14:25.392Z,940.53
2018-09-09T02:15:25.381Z,940.52
2018-09-09T02:16:25.388Z,940.53
2018-09-09T02:17:25.380Z,940.54
2018-09-09T02:18:25.346Z,940.53
2018-09-09T02:19:25.343Z,940.56
2018-09-09T02:20:25.330Z,940.59
2018-09-09T02:21:25.319Z,940.59
2018-09-09T02:22:25.317Z,940.54
2018-09-09T02:23:25.292Z,940.56
2018-09-09T02:24:25.280Z,940.56
2018-09-09T02:25:25.268Z,940.63
2018-09-09T02:26:25.256Z,940.62
2018-09-09T02:27:25.260Z,940.63
2018-09-09T02:28:25.234Z,940.64
2018-09-09T02:29:25.222Z,940.62
2018-09-09T02:30:25.215Z,940.62
2018-09-09T02:31:25.200Z,940.60
2018-09-09T02:32:25.214Z,940.59
2018-09-09T02:33:25.191Z,940.59
2018-09-09T02:34:25.172Z,940.64
2018-09-09T02:35:25.155Z,940.62
2018-09-09T02:36:25.145Z,940.60
2018-09-09T02:37:25.149Z,940.63
2018-09-09T02:38:25.145Z,940.61
2018-09-09T02:39:25.130Z,940.60
2018-09-09T02:40:25.106Z,940.62
2018-09-09T02:41:25.091Z,940.61
2018-09-09T02:42:25.097Z,940.63
2018-09-09T02:43:25.073Z,940.65
2018-09-09T02:44:25.065Z,940.61
2018-09-09T02:45:25.108Z,940.64
2018-09-09T02:46:25.036Z,940.62
2018-09-09T02:47:25.041Z,940.62
2018-09-09T02:48:25.014Z,940.60
2018-09-09T02:49:25.005Z,940.60
2018-09-09T02:50:25.002Z,940.67
2018-09-09T02:51:24.982Z,940.63
2018-09-09T02:52:24.969Z,940.67
2018-09-09T02:53:25.034Z,940.67
2018-09-09T02:54:24.965Z,940.69
2018-09-09T02:55:24.938Z,940.72
2018-09-09T02:56:24.929Z,940.71
2018-09-09T02:57:24.914Z,940.72
2018-09-09T02:58:24.917Z,940.69
2018-09-09T02:59:24.894Z,940.74
2018-09-09T03:00:24.882Z,940.71
2018-09-09T03:01:24.871Z,940.70
2018-09-09T03:02:24.860Z,940.72
2018-09-09T03:03:24.865Z,940.75
2018-09-09T03:04:24.834Z,940.73
2018-09-09T03:05:24.825Z,940.74
2018-09-09T03:06:24.819Z,940.73
2018-09-09T03:07:24.807Z,940.72
2018-09-09T03:08:24.817Z,940.73
2018-09-09T03:09:24.777Z,940.71
2018-09-09T03:10:24.767Z,940.77
2018-09-09T03:11:24.757Z,940.72
2018-09-09T03:12:24.747Z,940.70
2018-09-09T03:13:24.754Z,940.70
2018-09-09T03:14:24.725Z,940.69
2018-09-09T03:15:24.714Z,940.67
2018-09-09T03:16:24.703Z,940.71
2018-09-09T03:17:24.689Z,940.65
2018-09-09T03:18:24.706Z,940.65
2018-09-09T03:19:24.677Z,940.67
2018-09-09T03:20:24.656Z,940.68
2018-09-09T03:21:24.648Z,940.65
2018-09-09T03:22:24.635Z,940.69
2018-09-09T03:23:24.641Z,940.67
2018-09-09T03:24:24.619Z,940.65
2018-09-09T03:25:24.610Z,940.68
2018-09-09T03:26:24.592Z,940.69
2018-09-09T03:27:24.580Z,940.65
2018-09-09T03:28:24.612Z,940.68
2018-09-09T03:29:24.560Z,940.64
2018-09-09T03:30:24.553Z,940.65
2018-09-09T03:31:24.544Z,940.64
2018-09-09T03:32:24.528Z,940.65
2018-09-09T03:33:24.537Z,940.67
2018-09-09T03:34:24.504Z,940.64
2018-09-09T03:35:24.496Z,940.67
2018-09-09T03:36:24.483Z,940.65
2018-09-09T03:37:24.473Z,940.70
2018-09-09T03:38:24.475Z,940.68
2018-09-09T03:39:24.452Z,940.71
2018-09-09T03:40:24.443Z,940.73
2018-09-09T03:41:24.426Z,940.70
2018-09-09T03:42:24.437Z,940.68
2018-09-09T03:43:24.429Z,940.72
2018-09-09T03:44:24.396Z,940.72
2018-09-09T03:45:24.389Z,940.74
2018-09-09T03:46:24.374Z,940.72
2018-09-09T03:47:24.369Z,940.76
2018-09-09T03:48:24.371Z,940.76
2018-09-09T03:49:24.339Z,940.73
2018-09-09T03:50:24.329Z,940.74
2018-09-09T03:51:24.324Z,940.75
2018-09-09T03:52:24.318Z,940.74
2018-09-09T03:53:24.316Z,940.76
2018-09-09T03:54:24.300Z,940.75
2018-09-09T03:55:24.277Z,940.74
2018-09-09T03:56:24.275Z,940.75
2018-09-09T03:57:24.253Z,940.77
2018-09-09T03:58:24.271Z,940.77
2018-09-09T03:59:24.236Z,940.81
2018-09-09T04:00:24.232Z,940.79
2018-09-09T04:01:24.212Z,940.77
2018-09-09T04:02:24.200Z,940.79
2018-09-09T04:03:24.218Z,940.78
2018-09-09T04:04:24.188Z,940.79
2018-09-09T04:05:24.180Z,940.83
2018-09-09T04:06:24.156Z,940.80
2018-09-09T04:07:24.146Z,940.79
2018-09-09T04:08:24.135Z,940.81
2018-09-09T04:09:24.145Z,940.79
2018-09-09T04:10:24.112Z,940.79
2018-09-09T04:11:24.105Z,940.78
2018-09-09T04:12:24.093Z,940.78
2018-09-09T04:13:24.082Z,940.77
2018-09-09T04:14:24.086Z,940.79
2018-09-09T04:15:24.060Z,940.79
2018-09-09T04:16:24.047Z,940.75
2018-09-09T04:17:24.049Z,940.77
2018-09-09T04:18:24.028Z,940.80
2018-09-09T04:19:24.031Z,940.77
2018-09-09T04:20:24.008Z,940.81
2018-09-09T04:21:23.993Z,940.82
2018-09-09T04:22:23.984Z,940.84
2018-09-09T04:23:23.976Z,940.83
2018-09-09T04:24:23.985Z,940.79
2018-09-09T04:25:23.957Z,940.85
2018-09-09T04:26:23.938Z,940.81
2018-09-09T04:27:23.931Z,940.82
2018-09-09T04:28:23.921Z,940.80
2018-09-09T04:29:23.928Z,940.82
2018-09-09T04:30:23.893Z,940.83
2018-09-09T04:31:23.888Z,940.81
2018-09-09T04:32:23.872Z,940.82
2018-09-09T04:33:23.862Z,940.82
2018-09-09T04:34:23.875Z,940.85
2018-09-09T04:35:23.859Z,940.83
2018-09-09T04:36:23.832Z,940.90
2018-09-09T04:37:23.839Z,940.90
2018-09-09T04:38:23.810Z,940.90
2018-09-09T04:39:23.815Z,940.88
2018-09-09T04:40:23.796Z,940.92
2018-09-09T04:41:23.774Z,940.90
2018-09-09T04:42:23.766Z,940.91
2018-09-09T04:43:23.752Z,940.90
2018-09-09T04:44:23.761Z,940.92
2018-09-09T04:45:23.730Z,940.94
2018-09-09T04:46:23.796Z,940.96
2018-09-09T04:47:23.709Z,940.95
2018-09-09T04:48:23.696Z,940.96
2018-09-09T04:49:23.703Z,940.96
2018-09-09T04:50:23.674Z,940.97
2018-09-09T04:51:23.665Z,940.98
2018-09-09T04:52:23.667Z,941.01
2018-09-09T04:53:23.641Z,941.03
2018-09-09T04:54:23.647Z,940.99
2018-09-09T04:55:23.621Z,941.01
2018-09-09T04:56:23.611Z,941.02
2018-09-09T04:57:23.603Z,941.03
2018-09-09T04:58:23.603Z,941.00
2018-09-09T04:59:23.613Z,941.03
2018-09-09T05:00:23.565Z,941.03
2018-09-09T05:01:23.666Z,941.00
2018-09-09T05:02:23.551Z,941.04
2018-09-09T05:03:23.542Z,941.02
2018-09-09T05:04:23.537Z,941.05
2018-09-09T05:05:23.510Z,941.05
2018-09-09T05:06:23.501Z,941.07
2018-09-09T05:07:23.490Z,941.06
2018-09-09T05:08:23.477Z,941.07
2018-09-09T05:09:23.495Z,941.09
2018-09-09T05:10:23.458Z,941.07
2018-09-09T05:11:23.444Z,941.06
2018-09-09T05:12:23.436Z,941.07
2018-09-09T05:13:23.423Z,941.12
2018-09-09T05:14:23.428Z,941.11
2018-09-09T05:15:23.411Z,941.10
2018-09-09T05:16:23.410Z,941.15
2018-09-09T05:17:23.380Z,941.11
2018-09-09T05:18:23.377Z,941.18
2018-09-09T05:19:23.376Z,941.12
2018-09-09T05:20:23.347Z,941.16
2018-09-09T05:21:23.342Z,941.19
2018-09-09T05:22:23.333Z,941.18
2018-09-09T05:23:23.316Z,941.19
2018-09-09T05:24:23.320Z,941.18
2018-09-09T05:25:23.294Z,941.26
2018-09-09T05:26:23.291Z,941.27
2018-09-09T05:27:23.283Z,941.29
2018-09-09T05:28:23.264Z,941.30
2018-09-09T05:29:23.266Z,941.28
2018-09-09T05:30:23.243Z,941.28
2018-09-09T05:31:23.241Z,941.31
2018-09-09T05:32:23.226Z,941.26
2018-09-09T05:33:23.213Z,941.28
2018-09-09T05:34:23.236Z,941.32
2018-09-09T05:35:23.184Z,941.30
2018-09-09T05:36:23.176Z,941.35
2018-09-09T05:37:23.169Z,941.35
2018-09-09T05:38:23.164Z,941.35
2018-09-09T05:39:23.141Z,941.33
2018-09-09T05:40:23.152Z,941.32
2018-09-09T05:41:23.122Z,941.33
2018-09-09T05:42:23.163Z,941.31
2018-09-09T05:43:23.101Z,941.34
2018-09-09T05:44:23.099Z,941.32
2018-09-09T05:45:23.102Z,941.35
2018-09-09T05:46:23.066Z,941.36
2018-09-09T05:47:23.055Z,941.35
2018-09-09T05:48:23.051Z,941.35
2018-09-09T05:49:25.596Z,941.35
2018-09-09T05:50:23.038Z,941.36
2018-09-09T05:51:23.012Z,941.37
2018-09-09T05:52:23.001Z,941.36
2018-09-09T05:53:22.989Z,941.36
2018-09-09T05:54:22.977Z,941.33
2018-09-09T05:55:23.002Z,941.37
2018-09-09T05:56:22.960Z,941.36
2018-09-09T05:57:22.948Z,941.38
2018-09-09T05:58:22.935Z,941.38
2018-09-09T05:59:22.926Z,941.40
2018-09-09T06:00:22.937Z,941.37
2018-09-09T06:01:22.915Z,941.35
2018-09-09T06:02:22.908Z,941.32
2018-09-09T06:03:22.881Z,941.35
2018-09-09T06:04:22.867Z,941.34
2018-09-09T06:05:22.873Z,941.32
2018-09-09T06:06:22.853Z,941.29
2018-09-09T06:07:22.839Z,941.35
2018-09-09T06:08:22.825Z,941.36
2018-09-09T06:09:22.814Z,941.36
2018-09-09T06:10:22.817Z,941.33
2018-09-09T06:11:22.840Z,941.29
2018-09-09T06:12:22.780Z,941.33
2018-09-09T06:13:22.782Z,941.33
2018-09-09T06:14:22.790Z,941.33
2018-09-09T06:15:22.844Z,941.36
2018-09-09T06:16:22.759Z,941.30
2018-09-09T06:17:22.727Z,941.34
2018-09-09T06:18:22.767Z,941.35
2018-09-09T06:19:22.712Z,941.33
2018-09-09T06:20:22.707Z,941.31
2018-09-09T06:21:22.679Z,941.25
2018-09-09T06:22:22.670Z,941.27
2018-09-09T06:23:22.665Z,941.29
2018-09-09T06:24:22.651Z,941.22
2018-09-09T06:25:22.665Z,941.18
2018-09-09T06:26:22.624Z,941.23
2018-09-09T06:27:22.612Z,941.22
2018-09-09T06:28:22.705Z,941.21
2018-09-09T06:29:22.597Z,941.15
2018-09-09T06:30:22.580Z,941.16
2018-09-09T06:31:22.594Z,941.22
2018-09-09T06:32:22.562Z,941.20
2018-09-09T06:33:22.548Z,941.19
2018-09-09T06:34:22.539Z,941.21
2018-09-09T06:35:22.545Z,941.24
2018-09-09T06:36:22.533Z,941.23
2018-09-09T06:37:22.511Z,941.23
2018-09-09T06:38:22.499Z,941.24
2018-09-09T06:39:22.491Z,941.24
2018-09-09T06:40:22.473Z,941.26
2018-09-09T06:41:22.482Z,941.27
2018-09-09T06:42:22.460Z,941.28
2018-09-09T06:43:22.467Z,941.26
2018-09-09T06:44:22.437Z,941.27
2018-09-09T06:45:22.428Z,941.27
2018-09-09T06:46:22.440Z,941.24
2018-09-09T06:47:22.399Z,941.21
2018-09-09T06:48:22.395Z,941.26
2018-09-09T06:49:22.378Z,941.22
2018-09-09T06:50:22.373Z,941.25
2018-09-09T06:51:22.422Z,941.26
2018-09-09T06:52:22.345Z,941.24
2018-09-09T06:53:22.337Z,941.25
2018-09-09T06:54:22.330Z,941.27
2018-09-09T06:55:22.374Z,941.29
2018-09-09T06:56:22.327Z,941.26
2018-09-09T06:57:22.301Z,941.28
2018-09-09T06:58:22.282Z,941.28
2018-09-09T06:59:22.274Z,941.30
2018-09-09T07:00:22.265Z,941.30
2018-09-09T07:01:22.274Z,941.34
2018-09-09T07:02:22.298Z,941.30
2018-09-09T07:03:22.230Z,941.34
2018-09-09T07:04:22.218Z,941.35
2018-09-09T07:05:22.217Z,941.32
2018-09-09T07:06:22.221Z,941.31
2018-09-09T07:07:22.187Z,941.32
2018-09-09T07:08:22.189Z,941.35
2018-09-09T07:09:22.169Z,941.36
2018-09-09T07:10:22.155Z,941.34
2018-09-09T07:11:22.247Z,941.33
2018-09-09T07:12:22.138Z,941.36
2018-09-09T07:13:22.125Z,941.38
2018-09-09T07:14:22.119Z,941.35
2018-09-09T07:15:22.102Z,941.34
2018-09-09T07:16:22.123Z,941.33
2018-09-09T07:17:22.082Z,941.31
2018-09-09T07:18:22.129Z,941.29
2018-09-09T07:19:22.067Z,941.29
2018-09-09T07:20:22.048Z,941.26
2018-09-09T07:21:22.036Z,941.28
2018-09-09T07:22:22.041Z,941.30
2018-09-09T07:23:22.023Z,941.31
2018-09-09T07:24:22.013Z,941.33
2018-09-09T07:25:21.996Z,941.32
2018-09-09T07:26:21.984Z,941.30
2018-09-09T07:27:21.988Z,941.32
2018-09-09T07:28:21.978Z,941.31
2018-09-09T07:29:21.952Z,941.29
2018-09-09T07:30:21.948Z,941.31
2018-09-09T07:31:21.930Z,941.32
2018-09-09T07:32:21.936Z,941.33
2018-09-09T07:33:21.907Z,941.32
2018-09-09T07:34:22.008Z,941.35
2018-09-09T07:35:21.891Z,941.36
2018-09-09T07:36:21.876Z,941.35
2018-09-09T07:37:21.901Z,941.34
2018-09-09T07:38:21.852Z,941.40
2018-09-09T07:39:21.843Z,941.40
2018-09-09T07:40:21.830Z,941.41
2018-09-09T07:41:21.822Z,941.42
2018-09-09T07:42:21.828Z,941.48
2018-09-09T07:43:21.798Z,941.47
2018-09-09T07:44:21.787Z,941.48
2018-09-09T07:45:21.775Z,941.54
2018-09-09T07:46:21.778Z,941.56
2018-09-09T07:47:21.771Z,941.54
2018-09-09T07:48:21.743Z,941.55
2018-09-09T07:49:21.731Z,941.53
2018-09-09T07:50:21.721Z,941.52
2018-09-09T07:51:21.710Z,941.55
2018-09-09T07:52:21.716Z,941.54
2018-09-09T07:53:21.707Z,941.50
2018-09-09T07:54:21.681Z,941.56
2018-09-09T07:55:21.668Z,941.53
2018-09-09T07:56:21.656Z,941.54
2018-09-09T07:57:21.661Z,941.52
2018-09-09T07:58:21.633Z,941.55
2018-09-09T07:59:21.622Z,941.54
2018-09-09T08:00:21.640Z,941.51
2018-09-09T08:01:21.600Z,941.45
2018-09-09T08:02:21.607Z,941.49
2018-09-09T08:03:21.578Z,941.47
2018-09-09T08:04:21.572Z,941.49
2018-09-09T08:05:21.555Z,941.52
2018-09-09T08:06:21.552Z,941.55
2018-09-09T08:07:21.550Z,941.53
2018-09-09T08:08:21.527Z,941.55
2018-09-09T08:09:21.514Z,941.54
2018-09-09T08:10:21.520Z,941.54
2018-09-09T08:11:21.492Z,941.54
2018-09-09T08:12:21.495Z,941.53
2018-09-09T08:13:21.467Z,941.53
2018-09-09T08:14:21.456Z,941.51
2018-09-09T08:15:21.450Z,941.49
2018-09-09T08:16:21.441Z,941.52
2018-09-09T08:17:21.438Z,941.56
2018-09-09T08:18:21.473Z,941.58
2018-09-09T08:19:21.402Z,941.61
2018-09-09T08:20:21.393Z,941.64
2018-09-09T08:21:21.377Z,941.66
2018-09-09T08:22:21.400Z,941.64
2018-09-09T08:23:21.356Z,941.69
2018-09-09T08:24:21.346Z,941.69
2018-09-09T08:25:21.333Z,941.67
2018-09-09T08:26:21.326Z,941.68
2018-09-09T08:27:21.315Z,941.66
2018-09-09T08:28:21.316Z,941.61
2018-09-09T08:29:21.293Z,941.61
2018-09-09T08:30:21.320Z,941.61
2018-09-09T08:31:21.269Z,941.64
2018-09-09T08:32:21.275Z,941.67
2018-09-09T08:33:21.262Z,941.67
2018-09-09T08:34:21.236Z,941.64
2018-09-09T08:35:21.223Z,941.69
2018-09-09T08:36:21.213Z,941.66
2018-09-09T08:37:21.202Z,941.67
2018-09-09T08:38:21.208Z,941.67
2018-09-09T08:39:21.183Z,941.63
2018-09-09T08:40:21.168Z,941.68
2018-09-09T08:41:21.156Z,941.66
2018-09-09T08:42:21.145Z,941.70
2018-09-09T08:43:21.154Z,941.67
2018-09-09T08:44:21.124Z,941.68
2018-09-09T08:45:21.160Z,941.68
2018-09-09T08:46:21.101Z,941.71
2018-09-09T08:47:21.095Z,941.66
2018-09-09T08:48:21.096Z,941.71
2018-09-09T08:49:21.069Z,941.70
2018-09-09T08:50:21.058Z,941.68
2018-09-09T08:51:21.046Z,941.68
2018-09-09T08:52:21.036Z,941.68
2018-09-09T08:53:21.039Z,941.71
2018-09-09T08:54:21.016Z,941.75
2018-09-09T08:55:21.003Z,941.70
2018-09-09T08:56:20.990Z,941.69
2018-09-09T08:57:20.980Z,941.71
2018-09-09T08:58:20.987Z,941.72
2018-09-09T08:59:20.964Z,941.75
2018-09-09T09:00:20.948Z,941.69
2018-09-09T09:01:20.937Z,941.68
2018-09-09T09:02:20.930Z,941.68
2018-09-09T09:03:20.938Z,941.69
2018-09-09T09:04:20.903Z,941.67
2018-09-09T09:05:20.897Z,941.71
2018-09-09T09:06:20.906Z,941.70
2018-09-09T09:07:20.919Z,941.72
2018-09-09T09:08:20.886Z,941.70
2018-09-09T09:09:20.849Z,941.68
2018-09-09T09:10:20.841Z,941.66
2018-09-09T09:11:20.826Z,941.64
2018-09-09T09:12:20.814Z,941.67
2018-09-09T09:13:20.821Z,941.65
2018-09-09T09:14:20.792Z,941.68
2018-09-09T09:15:20.781Z,941.69
2018-09-09T09:16:20.772Z,941.68
2018-09-09T09:17:20.758Z,941.66
2018-09-09T09:18:20.770Z,941.68
2018-09-09T09:19:20.738Z,941.66
2018-09-09T09:20:20.765Z,941.68
2018-09-09T09:21:20.833Z,941.65
2018-09-09T09:22:20.710Z,941.67
2018-09-09T09:23:20.708Z,941.65
2018-09-09T09:24:20.682Z,941.64
2018-09-09T09:25:20.672Z,941.62
2018-09-09T09:26:20.661Z,941.65
2018-09-09T09:27:20.654Z,941.61
2018-09-09T09:28:20.653Z,941.64
2018-09-09T09:29:20.629Z,941.61
2018-09-09T09:30:20.620Z,941.57
2018-09-09T09:31:20.947Z,941.59
2018-09-09T09:32:20.593Z,941.57
2018-09-09T09:33:20.609Z,941.58
2018-09-09T09:34:20.595Z,941.59
2018-09-09T09:35:20.569Z,941.60
2018-09-09T09:36:20.555Z,941.58
2018-09-09T09:37:20.568Z,941.57
2018-09-09T09:38:20.546Z,941.60
2018-09-09T09:39:20.579Z,941.61
2018-09-09T09:40:20.506Z,941.60
2018-09-09T09:41:20.496Z,941.60
2018-09-09T09:42:20.653Z,941.60
2018-09-09T09:43:20.730Z,941.54
2018-09-09T09:44:20.478Z,941.57
2018-09-09T09:45:20.451Z,941.54
2018-09-09T09:46:20.440Z,941.51
2018-09-09T09:47:20.434Z,941.52
2018-09-09T09:48:20.421Z,941.50
2018-09-09T09:49:20.443Z,941.51
2018-09-09T09:50:20.398Z,941.50
2018-09-09T09:51:20.396Z,941.55
2018-09-09T09:52:20.373Z,941.52
2018-09-09T09:53:20.463Z,941.49
2018-09-09T09:54:20.384Z,941.49
2018-09-09T09:55:20.407Z,941.50
2018-09-09T09:56:20.332Z,941.49
2018-09-09T09:57:20.321Z,941.46
2018-09-09T09:58:20.313Z,941.47
2018-09-09T09:59:20.317Z,941.44
2018-09-09T10:00:20.299Z,941.48
2018-09-09T10:01:20.287Z,941.44
2018-09-09T10:02:20.265Z,941.41
2018-09-09T10:03:20.255Z,941.40
2018-09-09T10:04:20.262Z,941.40
2018-09-09T10:05:20.241Z,941.39
2018-09-09T10:06:20.241Z,941.37
2018-09-09T10:07:20.215Z,941.40
2018-09-09T10:08:20.200Z,941.41
2018-09-09T10:09:20.205Z,941.46
2018-09-09T10:10:20.178Z,941.40
2018-09-09T10:11:20.167Z,941.41
2018-09-09T10:12:20.161Z,941.35
2018-09-09T10:13:20.145Z,941.36
2018-09-09T10:14:20.151Z,941.36
2018-09-09T10:15:20.295Z,941.37
2018-09-09T10:16:20.117Z,941.36
2018-09-09T10:17:21.565Z,941.39
2018-09-09T10:18:20.089Z,941.36
2018-09-09T10:19:20.096Z,941.39
2018-09-09T10:20:20.069Z,941.39
2018-09-09T10:21:20.058Z,941.40
2018-09-09T10:22:20.048Z,941.41
2018-09-09T10:23:20.047Z,941.39
2018-09-09T10:24:20.174Z,941.39
2018-09-09T10:25:20.014Z,941.41
2018-09-09T10:26:20.003Z,941.41
2018-09-09T10:27:20.000Z,941.41
2018-09-09T10:28:19.984Z,941.35
2018-09-09T10:29:21.229Z,941.32
2018-09-09T10:30:19.959Z,941.37
2018-09-09T10:31:19.948Z,941.35
2018-09-09T10:32:19.941Z,941.35
2018-09-09T10:33:19.942Z,941.31
2018-09-09T10:34:19.948Z,941.31
2018-09-09T10:35:21.321Z,941.36
2018-09-09T10:36:19.898Z,941.32
2018-09-09T10:37:20.861Z,941.33
2018-09-09T10:38:19.875Z,941.29
2018-09-09T10:39:19.887Z,941.28
2018-09-09T10:40:19.861Z,941.34
2018-09-09T10:41:19.842Z,941.32
2018-09-09T10:42:20.381Z,941.29
2018-09-09T10:43:19.817Z,941.29
2018-09-09T10:44:21.224Z,941.26
2018-09-09T10:45:19.804Z,941.25
2018-09-09T10:46:19.962Z,941.25
2018-09-09T10:47:19.805Z,941.27
2018-09-09T10:48:19.763Z,941.29
2018-09-09T10:49:21.511Z,941.23
2018-09-09T10:50:19.831Z,941.24
2018-09-09T10:51:19.799Z,941.24
2018-09-09T10:52:20.175Z,941.22
2018-09-09T10:53:19.709Z,941.25
2018-09-09T10:54:19.714Z,941.19
2018-09-09T10:55:20.278Z,941.22
2018-09-09T10:56:19.679Z,941.24
2018-09-09T10:57:19.681Z,941.24
2018-09-09T10:58:19.679Z,941.23
2018-09-09T10:59:20.675Z,941.23
2018-09-09T11:00:19.632Z,941.19
2018-09-09T11:01:19.620Z,941.23
2018-09-09T11:02:19.623Z,941.26
2018-09-09T11:03:19.603Z,941.26
2018-09-09T11:04:19.603Z,941.25
2018-09-09T11:05:19.574Z,941.22
2018-09-09T11:06:19.563Z,941.25
2018-09-09T11:07:19.620Z,941.29
2018-09-09T11:08:19.547Z,941.30
2018-09-09T11:09:19.561Z,941.28
2018-09-09T11:10:19.519Z,941.29
2018-09-09T11:11:19.509Z,941.27
2018-09-09T11:12:19.496Z,941.26
2018-09-09T11:13:19.497Z,941.21
2018-09-09T11:14:19.475Z,941.22
2018-09-09T11:15:19.482Z,941.21
2018-09-09T11:16:19.459Z,941.21
2018-09-09T11:17:19.441Z,941.20
2018-09-09T11:18:19.433Z,941.17
2018-09-09T11:19:19.599Z,941.10
2018-09-09T11:20:19.618Z,941.08
2018-09-09T11:21:19.396Z,941.15
2018-09-09T11:22:19.384Z,941.07
2018-09-09T11:23:19.375Z,941.10
2018-09-09T11:24:19.398Z,941.09
2018-09-09T11:25:19.371Z,941.09
2018-09-09T11:26:19.340Z,941.02
2018-09-09T11:27:19.327Z,941.05
2018-09-09T11:28:19.322Z,941.07
2018-09-09T11:29:19.311Z,941.08
2018-09-09T11:30:19.318Z,941.06
2018-09-09T11:31:19.282Z,941.04
2018-09-09T11:32:19.274Z,941.00
2018-09-09T11:33:19.260Z,941.00
2018-09-09T11:34:19.246Z,941.05
2018-09-09T11:35:19.252Z,941.07
2018-09-09T11:36:19.297Z,941.04
2018-09-09T11:37:19.220Z,941.01
2018-09-09T11:38:19.203Z,941.04
2018-09-09T11:39:19.194Z,941.03
2018-09-09T11:40:19.204Z,941.05
2018-09-09T11:41:19.169Z,941.03
2018-09-09T11:42:19.157Z,941.07
2018-09-09T11:43:19.147Z,941.06
2018-09-09T11:44:19.136Z,941.05
2018-09-09T11:45:19.152Z,941.02
2018-09-09T11:46:19.139Z,941.03
2018-09-09T11:47:19.103Z,941.02
2018-09-09T11:48:19.092Z,941.03
2018-09-09T11:49:19.085Z,941.02
2018-09-09T11:50:19.090Z,941.03
2018-09-09T11:51:19.063Z,941.02
2018-09-09T11:52:19.047Z,941.02
2018-09-09T11:53:19.094Z,941.05
2018-09-09T11:54:19.027Z,941.08
2018-09-09T11:55:19.033Z,941.04
2018-09-09T11:56:19.007Z,941.03
2018-09-09T11:57:19.003Z,941.00
2018-09-09T11:58:18.982Z,941.06
2018-09-09T11:59:18.970Z,941.03
2018-09-09T12:00:18.984Z,941.07
2018-09-09T12:01:18.948Z,941.04
2018-09-09T12:02:18.948Z,941.01
2018-09-09T12:03:18.935Z,941.03
2018-09-09T12:04:18.915Z,941.03
2018-09-09T12:05:18.955Z,941.01
2018-09-09T12:06:18.893Z,941.05
2018-09-09T12:07:18.898Z,941.04
2018-09-09T12:08:18.877Z,941.06
2018-09-09T12:09:18.863Z,941.07
2018-09-09T12:10:18.893Z,941.05
2018-09-09T12:11:18.840Z,941.05
2018-09-09T12:12:18.836Z,941.01
2018-09-09T12:13:18.818Z,941.06
2018-09-09T12:14:18.813Z,941.07
2018-09-09T12:15:18.817Z,941.06
2018-09-09T12:16:18.790Z,941.14
2018-09-09T12:17:18.773Z,941.14
2018-09-09T12:18:18.771Z,941.15
2018-09-09T12:19:18.758Z,941.20
2018-09-09T12:20:18.758Z,941.09
2018-09-09T12:21:18.739Z,941.11
2018-09-09T12:22:18.719Z,941.12
2018-09-09T12:23:18.711Z,941.09
2018-09-09T12:24:18.707Z,941.12
2018-09-09T12:25:18.715Z,941.07
2018-09-09T12:26:18.678Z,941.09
2018-09-09T12:27:18.670Z,941.08
2018-09-09T12:28:18.656Z,941.07